createdAt,value
2023-04-25T00:02:40.776Z,12.97
2023-04-25T00:07:42.382Z,12.98
2023-04-25T00:12:43.856Z,12.96
2023-04-25T00:17:45.462Z,13.01
2023-04-25T00:22:46.968Z,12.91
2023-04-25T00:27:48.490Z,12.80
2023-04-25T00:32:50.095Z,12.88
2023-04-25T00:37:51.605Z,12.99
2023-04-25T00:42:53.965Z,12.92
2023-04-25T00:47:56.059Z,12.90
2023-04-25T00:52:57.614Z,12.88
2023-04-25T00:57:59.252Z,12.86
2023-04-25T01:03:01.402Z,12.78
2023-04-25T01:08:03.409Z,12.79
2023-04-25T01:13:05.187Z,12.98
2023-04-25T01:18:07.064Z,12.84
2023-04-25T01:23:09.129Z,12.82
2023-04-25T01:28:10.891Z,12.83
2023-04-25T01:33:14.885Z,12.97
2023-04-25T01:38:16.708Z,12.81
2023-04-25T01:43:18.309Z,12.88
2023-04-25T01:48:20.582Z,12.86
2023-04-25T01:53:22.695Z,12.77
2023-04-25T01:58:24.278Z,12.65
2023-04-25T02:04:04.203Z,12.63
2023-04-25T02:09:10.665Z,12.69
2023-04-25T02:14:17.659Z,12.78
2023-04-25T02:19:32.802Z,12.59
2023-04-25T02:24:34.331Z,12.46
2023-04-25T02:29:35.934Z,12.18
2023-04-25T02:34:37.714Z,12.19
2023-04-25T02:39:39.122Z,12.01
2023-04-25T02:44:40.572Z,11.71
2023-04-25T02:49:42.047Z,11.80
2023-04-25T02:54:44.368Z,11.77
2023-04-25T02:59:45.921Z,11.81
2023-04-25T03:04:47.588Z,11.50
2023-04-25T03:09:49.421Z,11.54
2023-04-25T03:14:51.022Z,11.47
2023-04-25T03:19:52.730Z,11.64
2023-04-25T03:24:54.212Z,11.58
2023-04-25T03:29:55.615Z,11.60
2023-04-25T03:34:57.279Z,11.52
2023-04-25T03:40:01.044Z,11.32
2023-04-25T03:45:20.810Z,11.23
2023-04-25T03:50:22.506Z,11.25
2023-04-25T03:55:24.145Z,11.20
2023-04-25T04:00:26.448Z,11.18
2023-04-25T04:05:28.725Z,11.32
2023-04-25T04:10:31.831Z,11.24
2023-04-25T04:15:33.625Z,11.27
2023-04-25T04:20:35.210Z,11.10
2023-04-25T04:25:38.415Z,10.79
2023-04-25T04:30:51.399Z,10.66
2023-04-25T04:35:53.793Z,10.50
2023-04-25T04:40:55.829Z,10.57
2023-04-25T04:46:07.926Z,10.56
2023-04-25T04:51:27.698Z,10.57
2023-04-25T04:56:30.081Z,10.64
2023-04-25T05:01:54.129Z,10.97
2023-04-25T05:07:11.457Z,11.15
2023-04-25T05:12:37.317Z,11.34
2023-04-25T05:17:57.688Z,11.59
2023-04-25T05:23:20.917Z,11.45
2023-04-25T05:28:41.200Z,11.44
2023-04-25T05:33:54.559Z,11.61
2023-04-25T05:38:57.450Z,11.66
2023-04-25T05:44:17.330Z,12.00
2023-04-25T05:49:38.599Z,11.96
2023-04-25T05:55:00.325Z,12.01
2023-04-25T06:00:02.402Z,12.40
2023-04-25T06:05:24.324Z,12.38
2023-04-25T06:10:26.260Z,12.43
2023-04-25T06:15:29.031Z,12.52
2023-04-25T06:20:31.143Z,12.63
2023-04-25T06:25:34.904Z,12.50
2023-04-25T06:30:37.712Z,12.54
2023-04-25T06:35:43.902Z,12.71
2023-04-25T06:40:47.860Z,12.99
2023-04-25T06:45:49.711Z,13.02
2023-04-25T06:50:51.787Z,13.00
2023-04-25T06:55:54.031Z,12.90
2023-04-25T07:00:57.897Z,12.91
2023-04-25T07:06:01.461Z,12.88
2023-04-25T07:11:04.522Z,12.60
2023-04-25T07:16:06.328Z,12.04
2023-04-25T07:21:09.679Z,11.26
2023-04-25T07:26:12.400Z,11.00
2023-04-25T07:31:27.692Z,11.06
2023-04-25T07:36:29.221Z,11.01
2023-04-25T07:41:30.676Z,11.02
2023-04-25T07:46:32.431Z,10.96
2023-04-25T07:51:34.206Z,10.89
2023-04-25T07:56:51.480Z,10.92
2023-04-25T08:01:54.165Z,10.93
2023-04-25T08:06:56.364Z,10.87
2023-04-25T08:12:02.351Z,11.07
2023-04-25T08:17:07.235Z,11.32
2023-04-25T08:22:14.660Z,11.59
2023-04-25T08:27:27.119Z,11.53
2023-04-25T08:32:30.779Z,11.68
2023-04-25T08:37:52.795Z,11.53
2023-04-25T08:42:56.021Z,11.52
2023-04-25T08:47:59.691Z,11.65
2023-04-25T08:53:05.476Z,11.58
2023-04-25T08:58:08.576Z,11.67
2023-04-25T09:03:11.595Z,11.69
2023-04-25T09:08:13.745Z,11.88
2023-04-25T09:13:26.142Z,11.71
2023-04-25T09:18:50.325Z,11.70
2023-04-25T09:23:53.313Z,11.67
2023-04-25T09:29:08.634Z,11.67
2023-04-25T09:34:13.736Z,11.59
2023-04-25T09:39:20.971Z,11.54
2023-04-25T09:44:33.517Z,11.56
2023-04-25T09:49:35.341Z,11.39
2023-04-25T09:54:45.451Z,11.60
2023-04-25T09:59:56.595Z,11.88
2023-04-25T10:05:01.719Z,12.14
2023-04-25T10:10:09.905Z,12.05
2023-04-25T10:15:13.013Z,12.39
2023-04-25T10:20:15.050Z,12.59
2023-04-25T10:25:16.826Z,12.48
2023-04-25T10:30:19.254Z,12.30
2023-04-25T10:35:26.420Z,12.60
2023-04-25T10:40:28.325Z,12.97
2023-04-25T10:45:29.783Z,13.00
2023-04-25T10:50:39.013Z,12.86
2023-04-25T10:55:52.819Z,12.64
2023-04-25T11:00:57.553Z,12.55
2023-04-25T11:06:02.307Z,13.30
2023-04-25T11:11:03.955Z,13.21
2023-04-25T11:21:31.602Z,13.42
2023-04-25T11:26:33.075Z,13.45
2023-04-25T11:31:34.959Z,13.24
2023-04-25T11:36:39.222Z,13.03
2023-04-25T11:41:42.840Z,13.12
2023-04-25T11:46:47.015Z,13.53
2023-04-25T11:51:49.567Z,14.24
2023-04-25T11:56:51.105Z,13.89
2023-04-25T12:01:52.861Z,14.37
2023-04-25T12:06:55.920Z,14.05
2023-04-25T12:11:59.255Z,14.31
2023-04-25T12:17:02.944Z,14.26
2023-04-25T12:22:19.969Z,14.71
2023-04-25T12:27:21.479Z,15.17
2023-04-25T12:32:23.446Z,14.91
2023-04-25T12:37:25.056Z,14.83
2023-04-25T12:42:26.459Z,14.42
2023-04-25T12:47:28.001Z,14.04
2023-04-25T12:52:29.460Z,13.93
2023-04-25T12:57:30.892Z,13.85
2023-04-25T13:02:32.426Z,14.02
2023-04-25T13:07:35.435Z,14.11
2023-04-25T13:12:37.474Z,14.18
2023-04-25T13:17:39.380Z,14.34
2023-04-25T13:22:41.050Z,14.14
2023-04-25T13:27:42.763Z,14.11
2023-04-25T13:32:44.543Z,13.98
2023-04-25T13:37:46.041Z,13.86
2023-04-25T13:42:47.491Z,13.87
2023-04-25T13:47:49.155Z,13.68
2023-04-25T13:52:50.706Z,13.95
2023-04-25T13:57:52.168Z,14.30
2023-04-25T14:02:53.716Z,14.37
2023-04-25T14:07:55.240Z,14.12
2023-04-25T14:12:56.721Z,14.19
2023-04-25T14:17:58.255Z,14.17
2023-04-25T14:22:59.745Z,14.13
2023-04-25T14:28:01.212Z,14.11
2023-04-25T14:33:02.793Z,14.31
2023-04-25T14:38:04.259Z,14.15
2023-04-25T14:43:05.723Z,14.25
2023-04-25T14:48:07.366Z,14.33
2023-04-25T14:53:08.924Z,14.31
2023-04-25T14:58:10.338Z,14.23
2023-04-25T15:03:11.987Z,13.99
2023-04-25T15:08:13.636Z,13.88
2023-04-25T15:13:15.656Z,13.75
2023-04-25T15:18:17.915Z,13.56
2023-04-25T15:23:20.350Z,13.42
2023-04-25T15:28:21.855Z,13.29
2023-04-25T15:33:23.400Z,13.30
2023-04-25T15:38:25.009Z,13.68
2023-04-25T15:43:26.496Z,13.77
2023-04-25T15:48:27.956Z,13.78
2023-04-25T15:53:29.473Z,13.61
2023-04-25T15:58:30.943Z,13.52
2023-04-25T16:03:49.430Z,13.22
2023-04-25T16:08:51.250Z,13.41
2023-04-25T16:13:52.959Z,13.67
2023-04-25T16:18:54.669Z,13.72
2023-04-25T16:23:56.147Z,13.47
2023-04-25T16:28:57.626Z,13.04
2023-04-25T16:33:59.146Z,13.05
2023-04-25T16:39:00.626Z,13.03
2023-04-25T16:44:02.047Z,12.66
2023-04-25T16:49:03.547Z,12.52
2023-04-25T16:54:04.992Z,12.58
2023-04-25T16:59:06.399Z,12.21
2023-04-25T17:04:08.029Z,12.32
2023-04-25T17:09:09.650Z,12.20
2023-04-25T17:14:11.106Z,11.98
2023-04-25T17:19:12.508Z,11.95
2023-04-25T17:24:14.006Z,11.92
2023-04-25T17:29:15.531Z,12.29
2023-04-25T17:34:17.004Z,12.30
2023-04-25T17:39:18.567Z,12.23
2023-04-25T17:44:20.721Z,12.03
2023-04-25T17:49:22.178Z,12.09
2023-04-25T17:54:23.908Z,12.29
2023-04-25T17:59:25.413Z,12.15
2023-04-25T18:04:30.562Z,12.09
2023-04-25T18:09:32.913Z,12.41
2023-04-25T18:14:34.454Z,12.44
2023-04-25T18:19:35.958Z,12.50
2023-04-25T18:24:37.378Z,12.25
2023-04-25T18:29:38.873Z,12.09
2023-04-25T18:34:40.333Z,11.73
2023-04-25T18:39:41.788Z,11.67
2023-04-25T18:44:43.285Z,11.97
2023-04-25T18:49:45.161Z,12.04
2023-04-25T18:54:46.654Z,12.04
2023-04-25T18:59:48.104Z,12.03
2023-04-25T19:04:49.620Z,11.98
2023-04-25T19:09:51.263Z,11.77
2023-04-25T19:14:52.741Z,11.91
2023-04-25T19:19:54.230Z,11.84
2023-04-25T19:25:03.091Z,11.57
2023-04-25T19:30:11.837Z,11.42
2023-04-25T19:35:13.361Z,11.36
2023-04-25T19:40:16.469Z,11.46
2023-04-25T19:45:18.145Z,11.52
2023-04-25T19:50:19.626Z,11.61
2023-04-25T19:55:21.161Z,11.66
2023-04-25T20:00:22.636Z,11.64
2023-04-25T20:05:24.152Z,11.84
2023-04-25T20:10:25.605Z,11.78
2023-04-25T20:15:27.036Z,11.68
2023-04-25T20:20:28.527Z,11.60
2023-04-25T20:25:29.976Z,11.42
2023-04-25T20:30:31.774Z,11.28
2023-04-25T20:35:33.282Z,11.38
2023-04-25T20:40:34.760Z,11.50
2023-04-25T20:45:36.275Z,11.51
2023-04-25T20:50:37.892Z,11.56
2023-04-25T20:55:39.347Z,11.49
2023-04-25T21:00:40.769Z,11.55
2023-04-25T21:05:42.203Z,11.62
2023-04-25T21:10:43.706Z,11.64
2023-04-25T21:15:45.230Z,11.76
2023-04-25T21:20:46.845Z,11.77
2023-04-25T21:25:48.293Z,11.67
2023-04-25T21:30:50.373Z,11.33
2023-04-25T21:35:51.957Z,11.24
2023-04-25T21:40:53.526Z,11.02
2023-04-25T21:46:19.083Z,11.10
2023-04-25T21:51:16.609Z,11.17
2023-04-25T21:56:18.106Z,11.21
2023-04-25T22:01:19.604Z,11.18
2023-04-25T22:06:21.076Z,11.19
2023-04-25T22:11:22.560Z,11.34
2023-04-25T22:16:24.151Z,11.60
2023-04-25T22:21:26.889Z,11.66
2023-04-25T22:26:28.365Z,11.70
2023-04-25T22:31:30.052Z,11.49
2023-04-25T22:36:31.557Z,11.42
2023-04-25T22:41:33.051Z,11.19
2023-04-25T22:46:34.561Z,11.10
2023-04-25T22:51:36.054Z,10.93
2023-04-25T22:56:37.516Z,10.92
2023-04-25T23:01:39.036Z,10.80
2023-04-25T23:06:40.481Z,10.50
2023-04-25T23:11:42.781Z,10.87
2023-04-25T23:16:44.592Z,10.93
2023-04-25T23:21:46.077Z,11.06
2023-04-25T23:26:47.605Z,10.64
2023-04-25T23:31:49.086Z,10.58
2023-04-25T23:36:50.530Z,10.61
2023-04-25T23:41:51.942Z,10.78
2023-04-25T23:46:53.468Z,10.83
2023-04-25T23:51:54.978Z,10.89
2023-04-25T23:56:56.484Z,10.65
